Thunder radar more information blitzortung!


Radar de pluja more information rain snow radar


Visita la nostra xarxa de llocs de meteo:

Template documentation
and downloads

And another site



No particular awareness of the weather is required.    There are no Weather-warnings

Pagina Historial Weather Underground text

Diari Resum Juny 8, 2017 Unitats:  Imperial    Mètric   Tant
« Previous Dia
SegĂźent Dia »
Diari Setmana Mensual Anual Personalitzada
  Maxima: Minima: Media:
Temperatura: 84.2 °F 62.4 °F 74.5 °F
Punt de rosada: 63.9 °F 56.1 °F 59.9 °F
Humitat: 84 % 49 % 62 %
Wind Speed: 12.7 mph 0 mph 5.2 mph
RĂ fegues de vent: 12.7 mph - -
Vent:- - SW
Pression baro: 30.1 in 29.9 in -
Precipitacions: 0 in    
Historical Graphs
 
 
Dades de taula per Juny 8, 2017
Temps Temperatura Punt de rosada Pression baro Vent Wind Speed RĂ fegues de vent Humitat Rainfall Rate (Hourly)
00:03 64 °F 56.7 °F 30.1 in SW 2.3 mph 2.3 mph 77 % 0 in
01:45 64 °F 58.1 °F 30.1 in WSW 1 mph 2 mph 81 % 0 in
01:55 63.9 °F 57.9 °F 30.1 in SW 1 mph 2 mph 81 % 0 in
02:05 64 °F 58.5 °F 30.1 in Calm   2 mph 82 % 0 in
02:15 64 °F 58.5 °F 30.1 in Calm     82 % 0 in
02:25 64.4 °F 58.8 °F 30.1 in Calm     82 % 0 in
02:35 64.6 °F 59 °F 30.1 in WSW 1 mph 2 mph 82 % 0 in
02:45 64.8 °F 58.8 °F 30.1 in Calm   2 mph 81 % 0 in
02:55 65.1 °F 58.8 °F 30.1 in WSW 1 mph 2 mph 80 % 0 in
03:05 65.7 °F 59 °F 30.1 in SW 1 mph 2 mph 79 % 0 in
03:15 66.6 °F 59.2 °F 30.1 in WSW 1 mph 3 mph 77 % 0 in
03:25 67.1 °F 59.4 °F 30.1 in West 2 mph 3 mph 76 % 0 in
03:35 66.9 °F 58.6 °F 30.1 in WSW 1 mph 3 mph 75 % 0 in
03:45 68.4 °F 59.4 °F 30.1 in SW 1 mph 2 mph 73 % 0 in
03:55 69.8 °F 60.4 °F 30.1 in WSW 1 mph 2 mph 72 % 0 in
04:05 69.3 °F 59.2 °F 30.1 in NE 1 mph 4 mph 70 % 0 in
04:15 70 °F 59.7 °F 30.1 in NNE 1 mph 4 mph 70 % 0 in
04:25 71.2 °F 60.1 °F 30.1 in NW 2 mph 3 mph 68 % 0 in
04:35 72.3 °F 60.3 °F 30.1 in NNW 1 mph 3 mph 66 % 0 in
04:45 72.9 °F 60.8 °F 30.1 in WNW 1 mph 4 mph 66 % 0 in
04:55 72 °F 59.5 °F 30.1 in WSW 3 mph 4 mph 65 % 0 in
05:05 73 °F 60.6 °F 30.1 in WSW 2 mph 6 mph 65 % 0 in
05:15 73.8 °F 60.8 °F 30.1 in SW 3 mph 5 mph 64 % 0 in
05:25 73.4 °F 60.4 °F 30.1 in SW 3 mph 7 mph 64 % 0 in
05:35 73.8 °F 60.4 °F 30.1 in SW 2 mph 8 mph 63 % 0 in
05:45 74.1 °F 60.6 °F 30.1 in SSW 3 mph 7 mph 63 % 0 in
10:50 74.5 °F 61.2 °F 30.1 in SW 5.8 mph 5.8 mph 63 % 0 in
10:55 73.8 °F 60.4 °F 30.1 in SW 6.9 mph 6.9 mph 63 % 0 in
11:00 74.5 °F 61.5 °F 30.1 in SSW 3.5 mph 3.5 mph 64 % 0 in
11:05 75 °F 61.5 °F 30.1 in SSW 2.3 mph 2.3 mph 63 % 0 in
11:10 75 °F 61.2 °F 30.1 in SSW 5.9 mph 5.9 mph 62 % 0 in
11:15 75.9 °F 62.1 °F 30.1 in SSW 4.6 mph 4.6 mph 62 % 0 in
11:20 75.7 °F 61.9 °F 30.1 in SW 9.2 mph 9.2 mph 62 % 0 in
11:25 76.5 °F 62.1 °F 30.1 in WSW 5.8 mph 5.8 mph 61 % 0 in
11:30 77.2 °F 61.7 °F 30.1 in SSW 6.9 mph 6.9 mph 59 % 0 in
11:35 76.6 °F 61.7 °F 30.1 in WSW 9.2 mph 9.2 mph 60 % 0 in
11:40 77.2 °F 61.7 °F 30.1 in SW 3.5 mph 3.5 mph 59 % 0 in
11:45 78.1 °F 62.6 °F 30.1 in SW 5.8 mph 5.8 mph 59 % 0 in
11:50 78.4 °F 62.4 °F 30.1 in SW 5.8 mph 5.8 mph 58 % 0 in
11:55 78.1 °F 62.1 °F 30.1 in SW 7.8 mph 7.8 mph 58 % 0 in
12:00 78.6 °F 62.1 °F 30.1 in SSW 5.8 mph 5.8 mph 57 % 0 in
12:05 78.3 °F 61.9 °F 30.1 in SSW 6.9 mph 6.9 mph 57 % 0 in
12:06 78.3 °F 61.9 °F 30.1 in SSW 8.1 mph 8.1 mph 57 % 0 in
12:11 78.8 °F 62.2 °F 30.1 in South 5.8 mph 5.8 mph 57 % 0 in
12:16 78.6 °F 62.1 °F 30.1 in WSW 5.4 mph 5.4 mph 57 % 0 in
12:18 78.8 °F 62.2 °F 30.1 in SSW 4.6 mph 4.6 mph 57 % 0 in
12:28 79.7 °F 62.1 °F 30.1 in SE 3.5 mph 3.5 mph 55 % 0 in
12:33 79.7 °F 62.1 °F 30.1 in South 3.5 mph 3.5 mph 55 % 0 in
12:38 80.4 °F 62.8 °F 30.1 in SW 3.5 mph 3.5 mph 55 % 0 in
12:43 79.5 °F 61.9 °F 30.1 in SW 5.8 mph 5.8 mph 55 % 0 in
12:48 78.6 °F 61.2 °F 30.1 in SW 6.9 mph 6.9 mph 55 % 0 in
12:53 78.8 °F 61.3 °F 30.1 in South 9.2 mph 9.2 mph 55 % 0 in
12:58 78.8 °F 61.3 °F 30.1 in SW 6.9 mph 6.9 mph 55 % 0 in
13:03 79.2 °F 61.5 °F 30.1 in WSW 8.1 mph 8.1 mph 55 % 0 in
13:08 79.5 °F 61.9 °F 30.1 in South 8.1 mph 8.1 mph 55 % 0 in
13:13 80.2 °F 62.1 °F 30.1 in SSW 5.6 mph 5.6 mph 54 % 0 in
13:18 81 °F 62.8 °F 30.1 in SSW 4.6 mph 4.6 mph 54 % 0 in
13:23 81.5 °F 62.8 °F 30.1 in SSE 4.6 mph 4.6 mph 53 % 0 in
13:28 81.1 °F 62.4 °F 30.1 in SW 8.1 mph 8.1 mph 53 % 0 in
13:33 80.8 °F 61.5 °F 30.1 in SSW 9.2 mph 9.2 mph 52 % 0 in
13:38 80.4 °F 61.7 °F 30.1 in SW 8.1 mph 8.1 mph 53 % 0 in
13:43 81 °F 61.2 °F 30.1 in South 4.6 mph 4.6 mph 51 % 0 in
13:48 82.2 °F 62.8 °F 30.1 in SW 4.9 mph 4.9 mph 52 % 0 in
13:53 81.5 °F 61.5 °F 30.1 in WSW 6.9 mph 6.9 mph 51 % 0 in
13:58 81.5 °F 62.2 °F 30.1 in SW 5.8 mph 5.8 mph 52 % 0 in
13:59 81.7 °F 61.9 °F 30.1 in South 7.1 mph 7.1 mph 51 % 0 in
14:04 81.5 °F 61.5 °F 30.1 in WSW 6.9 mph 6.9 mph 51 % 0 in
14:09 80.8 °F 61 °F 30.1 in SW 4.6 mph 4.6 mph 51 % 0 in
14:14 82.4 °F 62.4 °F 30.1 in SE 4.6 mph 4.6 mph 51 % 0 in
14:19 82.9 °F 63 °F 30.1 in SSW 5.8 mph 5.8 mph 51 % 0 in
14:24 82.2 °F 62.2 °F 30.1 in SSW 5.8 mph 5.8 mph 51 % 0 in
14:29 82.8 °F 62.8 °F 30.1 in SSW 6.4 mph 6.4 mph 51 % 0 in
14:34 82.6 °F 62.6 °F 30.1 in SSE 6.9 mph 6.9 mph 51 % 0 in
14:39 81.7 °F 61.9 °F 30.1 in South 6.9 mph 6.9 mph 51 % 0 in
14:44 81.5 °F 61.5 °F 30.1 in South 10.4 mph 10.4 mph 51 % 0 in
14:49 82 °F 62.1 °F 30 in SW 7.6 mph 7.6 mph 51 % 0 in
14:54 81.5 °F 61.2 °F 30 in SW 8.1 mph 8.1 mph 50 % 0 in
14:59 81.9 °F 62.1 °F 30 in WSW 8.1 mph 8.1 mph 51 % 0 in
15:04 82.6 °F 62.1 °F 30.1 in South 5.8 mph 5.8 mph 50 % 0 in
15:09 82.6 °F 62.1 °F 30.1 in SW 8.1 mph 8.1 mph 50 % 0 in
15:14 82.4 °F 61.9 °F 30.1 in WSW 6.2 mph 6.2 mph 50 % 0 in
15:19 82.9 °F 63 °F 30 in WSW 5.8 mph 5.8 mph 51 % 0 in
15:24 83.5 °F 63 °F 30 in SW 6 mph 6 mph 50 % 0 in
15:29 83.8 °F 63.9 °F 30 in SSW 8.1 mph 8.1 mph 51 % 0 in
15:34 83.8 °F 63.9 °F 30 in SW 9.7 mph 9.7 mph 51 % 0 in
15:39 82.8 °F 62.2 °F 30 in SSW 6.9 mph 6.9 mph 50 % 0 in
15:44 82.9 °F 62.4 °F 30 in SW 8.1 mph 8.1 mph 50 % 0 in
15:49 84.2 °F 63 °F 30 in SW 6.2 mph 6.2 mph 49 % 0 in
15:54 83.7 °F 63 °F 30 in WSW 5.8 mph 5.8 mph 50 % 0 in
15:59 82.6 °F 62.1 °F 30 in SW 5.8 mph 5.8 mph 50 % 0 in
16:04 82.2 °F 61.7 °F 30 in SW 9.7 mph 9.7 mph 50 % 0 in
16:09 82.2 °F 62.2 °F 30 in ESE 5.8 mph 5.8 mph 51 % 0 in
16:14 82.6 °F 62.1 °F 30 in WSW 11.5 mph 11.5 mph 50 % 0 in
16:19 83.1 °F 62.6 °F 30 in WSW 5.8 mph 5.8 mph 50 % 0 in
16:24 81.5 °F 61.2 °F 30 in WSW 10.4 mph 10.4 mph 50 % 0 in
16:29 81.7 °F 61.9 °F 30 in SW 7.8 mph 7.8 mph 51 % 0 in
16:34 81.5 °F 61.5 °F 30 in SW 12.7 mph 12.7 mph 51 % 0 in
16:39 80.6 °F 60.8 °F 30 in South 9.2 mph 9.2 mph 51 % 0 in
16:44 81 °F 61.2 °F 30 in SSE 5.8 mph 5.8 mph 51 % 0 in
16:49 80.6 °F 60.8 °F 30 in SSW 8.1 mph 8.5 mph 51 % 0 in
16:54 80.8 °F 61.5 °F 30 in SSW 6.9 mph 6.9 mph 52 % 0 in
16:59 81.7 °F 61.9 °F 30 in SW 5.8 mph 5.8 mph 51 % 0 in
17:04 81 °F 61.2 °F 30 in SSW 10.7 mph 10.7 mph 51 % 0 in
17:09 80.4 °F 61.2 °F 30 in SW 10.4 mph 10.4 mph 52 % 0 in
17:14 80.8 °F 61 °F 30 in West 9.2 mph 9.2 mph 51 % 0 in
17:19 81.3 °F 62.1 °F 30 in SSW 10.5 mph 10.5 mph 52 % 0 in
17:24 80.4 °F 61.7 °F 30 in SSW 9.2 mph 9.2 mph 53 % 0 in
17:29 80.6 °F 60.8 °F 30 in SW 9.2 mph 9.2 mph 51 % 0 in
17:34 80.2 °F 61 °F 30 in SW 6.9 mph 6.9 mph 52 % 0 in
17:39 80.6 °F 60.8 °F 30 in SW 8.1 mph 8.1 mph 51 % 0 in
17:44 79.7 °F 60.4 °F 30 in SW 6.9 mph 6.9 mph 52 % 0 in
17:49 80.6 °F 61.3 °F 30 in SW 5.8 mph 5.8 mph 52 % 0 in
17:54 79.9 °F 60.6 °F 30 in SW 7.6 mph 7.6 mph 52 % 0 in
17:59 80.4 °F 61.2 °F 30 in SW 6.9 mph 6.9 mph 52 % 0 in
18:04 81 °F 61.7 °F 30 in WSW 4.6 mph 4.6 mph 52 % 0 in
18:09 81 °F 61.2 °F 30 in South 8.1 mph 8.1 mph 51 % 0 in
18:19 79.5 °F 60.4 °F 30 in SSW 8.1 mph 8.1 mph 52 % 0 in
18:24 79.7 °F 60.4 °F 30 in South 4.6 mph 4.6 mph 52 % 0 in
18:29 79.7 °F 60.4 °F 30 in WSW 6.9 mph 6.9 mph 52 % 0 in
18:34 79 °F 59.9 °F 30 in SW 8.1 mph 8.1 mph 52 % 0 in
18:39 79.3 °F 60.3 °F 30 in West 7.8 mph 7.8 mph 52 % 0 in
18:44 79.3 °F 60.3 °F 30 in SSW 5.9 mph 5.9 mph 52 % 0 in
18:49 79.2 °F 60.1 °F 30 in SW 2.3 mph 2.9 mph 52 % 0 in
18:54 78.6 °F 59.5 °F 30 in SW 9.2 mph 9.2 mph 52 % 0 in
18:59 78.8 °F 59.7 °F 30 in SW 3.5 mph 3.5 mph 52 % 0 in
19:04 79.2 °F 60.1 °F 30 in WSW 3.6 mph 3.6 mph 52 % 0 in
19:09 78.8 °F 59.7 °F 30 in SW 5.8 mph 5.8 mph 52 % 0 in
19:14 77.7 °F 58.1 °F 30 in SW 6.9 mph 6.9 mph 51 % 0 in
19:15 77.7 °F 58.6 °F 30 in SSW 5.8 mph 5.8 mph 52 % 0 in
19:20 77.5 °F 58.5 °F 29.9 in WSW 4.6 mph 4.6 mph 52 % 0 in
19:25 77.4 °F 58.5 °F 29.9 in SSW 5.8 mph 5.8 mph 52 % 0 in
19:30 76.8 °F 58.5 °F 29.9 in SW 6.7 mph 6.7 mph 53 % 0 in
19:35 77 °F 57.9 °F 29.9 in SSW 8.1 mph 8.1 mph 52 % 0 in
19:40 76.8 °F 58.5 °F 29.9 in South 5.9 mph 5.9 mph 53 % 0 in
19:45 76.1 °F 58.3 °F 29.9 in SE 8.1 mph 8.1 mph 54 % 0 in
19:50 75.7 °F 57.9 °F 29.9 in WSW 8.5 mph 8.5 mph 54 % 0 in
19:55 75.2 °F 57.9 °F 29.9 in SW 5.8 mph 5.8 mph 55 % 0 in
20:00 75.2 °F 57.9 °F 29.9 in SW 6.4 mph 6.4 mph 55 % 0 in
20:05 74.8 °F 58.1 °F 29.9 in WSW 7.1 mph 7.1 mph 56 % 0 in
20:10 74.5 °F 57.7 °F 29.9 in WSW 3.5 mph 3.5 mph 56 % 0 in
20:15 74.1 °F 57.4 °F 29.9 in WSW 7.6 mph 7.6 mph 56 % 0 in
20:20 73.6 °F 57.4 °F 29.9 in South 6.9 mph 6.9 mph 57 % 0 in
20:25 73 °F 56.8 °F 29.9 in SW 5.8 mph 5.8 mph 57 % 0 in
20:30 72.7 °F 57 °F 29.9 in SSW 6.2 mph 6.2 mph 58 % 0 in
20:35 72.1 °F 56.5 °F 29.9 in SW 8.1 mph 8.1 mph 58 % 0 in
20:40 72 °F 56.8 °F 29.9 in WSW 4.9 mph 4.9 mph 59 % 0 in
20:45 71.6 °F 56.5 °F 29.9 in WSW 6.9 mph 6.9 mph 59 % 0 in
20:50 71.2 °F 56.7 °F 29.9 in SW 9.2 mph 9.2 mph 60 % 0 in
20:55 71.1 °F 56.8 °F 29.9 in WSW 5.8 mph 5.8 mph 61 % 0 in
21:00 70.7 °F 56.7 °F 29.9 in SW 3.5 mph 3.6 mph 61 % 0 in
21:05 70.5 °F 56.8 °F 29.9 in West 5.8 mph 5.8 mph 62 % 0 in
21:06 70.5 °F 56.8 °F 29.9 in SW 5.8 mph 5.8 mph 62 % 0 in
21:11 70.2 °F 56.5 °F 29.9 in WSW 5.4 mph 5.4 mph 62 % 0 in
21:15 64.8 °F 59.2 °F 30 in Calm   1 mph 82 % 0 in
21:16 69.8 °F 56.1 °F 29.9 in SW 5.8 mph 5.8 mph 62 % 0 in
21:21 69.6 °F 56.5 °F 29.9 in WSW 6.9 mph 6.9 mph 63 % 0 in
21:25 64.9 °F 59.4 °F 30 in WSW 1 mph 3 mph 82 % 0 in
21:26 69.3 °F 56.1 °F 29.9 in SSW 5.8 mph 5.8 mph 63 % 0 in
21:31 69.1 °F 56.5 °F 29.9 in SW 8.5 mph 8.5 mph 64 % 0 in
21:35 64.8 °F 59.2 °F 30 in West 1 mph 2 mph 82 % 0 in
21:36 68.7 °F 56.5 °F 29.9 in SSW 4.6 mph 4.6 mph 65 % 0 in
21:41 68.5 °F 56.7 °F 29.9 in WSW 6.9 mph 6.9 mph 66 % 0 in
21:45 64.9 °F 59 °F 30 in West 3 mph 3 mph 81 % 0 in
21:46 68.4 °F 56.7 °F 29.9 in SW 5.8 mph 5.8 mph 66 % 0 in
21:51 68.2 °F 56.8 °F 30 in SSW 6.2 mph 6.2 mph 67 % 0 in
21:55 64.9 °F 59 °F 30 in West 2 mph 3 mph 81 % 0 in
21:56 68 °F 56.7 °F 30 in SW 4.6 mph 4.6 mph 67 % 0 in
22:01 68 °F 57 °F 30 in SW 4.6 mph 4.6 mph 68 % 0 in
22:05 64.9 °F 59.4 °F 30 in WSW 1 mph 3 mph 82 % 0 in
22:06 67.8 °F 57.7 °F 30 in SW 5.8 mph 5.8 mph 70 % 0 in
22:11 67.6 °F 57.9 °F 30 in SW 6.9 mph 6.9 mph 71 % 0 in
22:15 64.8 °F 58.8 °F 30 in WSW 1 mph 2 mph 81 % 0 in
22:16 67.5 °F 57.7 °F 30 in SW 4.6 mph 4.6 mph 71 % 0 in
22:25 64.4 °F 58.5 °F 30 in Calm     81 % 0 in
22:26 67.1 °F 57.7 °F 30 in SW 3.5 mph 3.5 mph 72 % 0 in
22:31 66.9 °F 57.6 °F 30 in SSW 3.1 mph 3.3 mph 72 % 0 in
22:35 64 °F 58.5 °F 30 in Calm   3 mph 82 % 0 in
22:36 66.7 °F 57.7 °F 30 in West 3.5 mph 3.5 mph 73 % 0 in
22:41 66.6 °F 57.6 °F 30 in WSW 4.9 mph 4.9 mph 73 % 0 in
22:45 63.7 °F 58.1 °F 30 in SW 2 mph 2 mph 82 % 0 in
22:46 66.4 °F 57.7 °F 30 in SW 4 mph 4 mph 74 % 0 in
22:51 66.4 °F 57.7 °F 30 in WSW 4.6 mph 4.6 mph 74 % 0 in
22:55 63.3 °F 58.1 °F 30 in Calm     83 % 0 in
22:56 66.2 °F 57.7 °F 30 in SW 4.6 mph 4.6 mph 74 % 0 in
23:01 66.2 °F 57.9 °F 30 in SW 4.6 mph 4.6 mph 75 % 0 in
23:05 63.3 °F 58.1 °F 30 in WSW 2 mph 2 mph 83 % 0 in
23:06 66 °F 58.3 °F 30 in SW 2.3 mph 3.1 mph 76 % 0 in
23:11 66 °F 58.6 °F 30 in South 3.5 mph 3.5 mph 77 % 0 in
23:15 63 °F 57.7 °F 30 in Calm   1 mph 83 % 0 in
23:16 65.8 °F 58.5 °F 30 in SSW 2.6 mph 2.6 mph 77 % 0 in
23:21 65.7 °F 58.3 °F 30 in SSW 2.3 mph 2.3 mph 77 % 0 in
23:25 62.8 °F 57.6 °F 30 in Calm   2 mph 83 % 0 in
23:26 65.7 °F 58.3 °F 30 in SSW 3.5 mph 3.5 mph 77 % 0 in
23:31 65.5 °F 58.1 °F 30 in South 4.6 mph 4.6 mph 77 % 0 in
23:35 62.4 °F 57.6 °F 30 in SW 1 mph 3 mph 84 % 0 in
23:36 65.5 °F 58.1 °F 30 in SW 4.6 mph 4.6 mph 77 % 0 in
23:41 65.3 °F 58.3 °F 30 in SW 4.6 mph 4.6 mph 78 % 0 in
23:45 62.6 °F 57 °F 30 in WSW 2 mph 2 mph 82 % 0 in
23:46 65.3 °F 58.3 °F 30 in WSW 4.6 mph 4.6 mph 78 % 0 in
23:51 65.1 °F 58.1 °F 30 in SW 4.6 mph 4.6 mph 78 % 0 in
23:55 62.8 °F 57.2 °F 30 in WSW 2 mph 3 mph 82 % 0 in
23:56 65.1 °F 58.1 °F 30 in SW 3.5 mph 3.5 mph 78 % 0 in
Meteo Sesrovires
Elogis d' Weather Underground - 3.5 mb

Guio original per  Jim McMurry - jmcmurry@mwt.net Adaptat per a la plantilla per  Wim van der Kuil - Leuven-Template.eu

Trobareu la nostra informacio del temps tambe a:

Weather Underground

AWEKAS